Time,TemperatureF,DewpointF,PressureIn,WindDirection,WindDirectionDegrees,WindSpeedMPH,WindSpeedGustMPH,Humidity,HourlyPrecipIn,Conditions,Clouds,dailyrainin,SoftwareType,DateUTC
2013-04-12 00:01:00,64.6,56.8,30.08,SSE,158,0.0,0.0,76,0.00,CLR,,0.00,WeatherDisplay:10.37,2013-04-11 14:01:00,
2013-04-12 00:06:00,64.2,56.5,30.08,SSE,161,0.0,0.0,76,0.00,CLR,,0.00,WeatherDisplay:10.37,2013-04-11 14:06:00,
2013-04-12 00:11:00,64.2,56.5,30.08,SSE,148,0.0,0.0,76,0.00,CLR,,0.00,WeatherDisplay:10.37,2013-04-11 14:11:00,
2013-04-12 00:16:00,64.0,56.3,30.08,ENE,74,0.0,0.0,76,0.00,CLR,,0.00,WeatherDisplay:10.37,2013-04-11 14:16:00,
2013-04-12 00:21:00,64.0,56.3,30.08,NE,42,0.0,0.0,76,0.00,CLR,,0.00,WeatherDisplay:10.37,2013-04-11 14:21:00,
2013-04-12 00:31:00,63.7,56.0,30.08,NE,45,0.0,0.0,76,0.00,CLR,,0.00,WeatherDisplay:10.37,2013-04-11 14:31:00,
2013-04-12 00:36:00,63.5,55.8,30.08,NE,45,0.0,0.0,76,0.00,CLR,,0.00,WeatherDisplay:10.37,2013-04-11 14:36:00,
2013-04-12 00:41:00,63.4,55.7,30.07,NE,45,0.0,0.0,76,0.00,CLR,,0.00,WeatherDisplay:10.37,2013-04-11 14:41:00,
2013-04-12 00:51:00,63.3,56.0,30.08,NE,45,0.0,0.0,77,0.00,CLR,,0.00,WeatherDisplay:10.37,2013-04-11 14:51:00,
2013-04-12 00:56:00,63.1,55.8,30.08,NE,45,0.0,0.0,77,0.00,CLR,,0.00,WeatherDisplay:10.37,2013-04-11 14:56:00,
2013-04-12 01:01:00,63.1,55.8,30.08,NE,45,0.0,0.0,77,0.00,CLR,,0.00,WeatherDisplay:10.37,2013-04-11 15:01:00,
2013-04-12 01:11:00,63.0,55.6,30.08,ENE,68,0.0,0.0,77,0.00,CLR,,0.00,WeatherDisplay:10.37,2013-04-11 15:11:00,
2013-04-12 01:16:00,63.0,55.6,30.08,ENE,67,0.0,0.0,77,0.00,CLR,,0.00,WeatherDisplay:10.37,2013-04-11 15:16:00,
2013-04-12 01:21:00,62.8,55.5,30.08,ENE,67,0.0,0.0,77,0.00,CLR,,0.00,WeatherDisplay:10.37,2013-04-11 15:21:00,
2013-04-12 01:31:00,62.8,55.5,30.08,ENE,67,0.0,0.0,77,0.00,CLR,,0.00,WeatherDisplay:10.37,2013-04-11 15:31:00,
2013-04-12 01:41:00,62.5,55.2,30.08,ENE,64,0.0,0.0,77,0.00,CLR,,0.00,WeatherDisplay:10.37,2013-04-11 15:41:00,
2013-04-12 01:46:00,62.4,55.1,30.08,ENE,64,0.0,0.0,77,0.00,CLR,,0.00,WeatherDisplay:10.37,2013-04-11 15:46:00,
2013-04-12 01:56:00,62.4,55.1,30.07,ENE,68,0.0,0.0,77,0.00,CLR,,0.00,WeatherDisplay:10.37,2013-04-11 15:56:00,
2013-04-12 02:01:00,62.4,55.5,30.07,ENE,68,0.0,0.0,78,0.00,CLR,,0.00,WeatherDisplay:10.37,2013-04-11 16:01:00,
2013-04-12 02:06:00,62.4,55.5,30.07,ENE,68,0.0,0.0,78,0.00,CLR,,0.00,WeatherDisplay:10.37,2013-04-11 16:06:00,
2013-04-12 02:21:00,62.2,55.3,30.07,ENE,68,0.0,0.0,78,0.00,CLR,,0.00,WeatherDisplay:10.37,2013-04-11 16:21:00,
2013-04-12 02:26:00,62.2,55.3,30.07,ENE,71,0.0,0.0,78,0.00,CLR,,0.00,WeatherDisplay:10.37,2013-04-11 16:26:00,
2013-04-12 02:31:00,62.2,55.2,30.07,ESE,109,0.0,0.0,78,0.00,CLR,,0.00,WeatherDisplay:10.37,2013-04-11 16:31:00,
2013-04-12 02:36:00,62.1,55.1,30.07,SE,125,0.0,0.0,78,0.00,CLR,,0.00,WeatherDisplay:10.37,2013-04-11 16:36:00,
2013-04-12 02:46:00,61.9,54.9,30.07,SE,134,0.0,0.0,78,0.00,CLR,,0.00,WeatherDisplay:10.37,2013-04-11 16:46:00,
2013-04-12 03:11:00,61.7,55.1,30.07,SE,135,0.0,0.0,79,0.00,CLR,,0.00,WeatherDisplay:10.37,2013-04-11 17:11:00,
2013-04-12 03:16:00,61.6,55.1,30.07,SE,133,0.0,0.0,79,0.00,CLR,,0.00,WeatherDisplay:10.37,2013-04-11 17:16:00,
2013-04-12 03:21:00,61.5,54.9,30.07,SE,124,0.0,0.0,79,0.00,CLR,,0.00,WeatherDisplay:10.37,2013-04-11 17:21:00,
2013-04-12 03:26:00,61.5,54.9,30.07,SE,129,0.0,0.0,79,0.00,CLR,,0.00,WeatherDisplay:10.37,2013-04-11 17:26:00,
2013-04-12 03:31:00,61.5,54.9,30.07,SE,132,0.0,0.0,79,0.00,CLR,,0.00,WeatherDisplay:10.37,2013-04-11 17:31:00,
2013-04-12 03:36:00,61.5,54.9,30.07,SE,131,0.0,0.0,79,0.00,CLR,,0.00,WeatherDisplay:10.37,2013-04-11 17:36:00,
2013-04-12 03:41:00,61.5,54.9,30.07,SE,133,0.0,0.0,79,0.00,CLR,,0.00,WeatherDisplay:10.37,2013-04-11 17:41:00,
2013-04-12 03:46:00,61.5,54.9,30.08,ESE,108,0.0,0.0,79,0.00,CLR,,0.00,WeatherDisplay:10.37,2013-04-11 17:46:00,
2013-04-12 03:51:00,61.3,54.8,30.07,ESE,116,0.0,0.0,79,0.00,CLR,,0.00,WeatherDisplay:10.37,2013-04-11 17:51:00,
2013-04-12 03:56:00,61.3,54.8,30.07,SSE,155,0.0,0.0,79,0.00,CLR,,0.00,WeatherDisplay:10.37,2013-04-11 17:56:00,
2013-04-12 04:01:00,61.3,54.8,30.07,SE,136,0.0,0.0,79,0.00,CLR,,0.00,WeatherDisplay:10.37,2013-04-11 18:01:00,
2013-04-12 04:06:00,61.3,54.8,30.07,ENE,60,0.0,0.0,79,0.00,CLR,,0.00,WeatherDisplay:10.37,2013-04-11 18:06:00,
2013-04-12 04:16:00,61.3,55.1,30.07,NNE,23,0.0,0.0,80,0.00,CLR,,0.00,WeatherDisplay:10.37,2013-04-11 18:16:00,
2013-04-12 04:21:00,61.3,55.1,30.07,North,9,0.0,0.0,80,0.00,CLR,,0.00,WeatherDisplay:10.37,2013-04-11 18:21:00,
2013-04-12 04:31:00,61.2,54.9,30.08,North,358,0.0,0.0,80,0.00,CLR,,0.00,WeatherDisplay:10.37,2013-04-11 18:31:00,
2013-04-12 04:41:00,61.0,54.8,30.08,North,6,0.0,0.0,80,0.00,CLR,,0.00,WeatherDisplay:10.37,2013-04-11 18:41:00,
2013-04-12 04:51:00,61.0,54.8,30.09,North,356,0.0,0.0,80,0.00,CLR,,0.00,WeatherDisplay:10.37,2013-04-11 18:51:00,
2013-04-12 04:56:00,60.7,54.5,30.09,North,359,0.0,0.0,80,0.00,CLR,,0.00,WeatherDisplay:10.37,2013-04-11 18:56:00,
2013-04-12 05:01:00,60.6,54.4,30.09,North,0,0.0,0.0,80,0.00,CLR,,0.00,WeatherDisplay:10.37,2013-04-11 19:01:00,
2013-04-12 05:11:00,60.6,54.4,30.11,NW,310,0.0,0.0,80,0.00,CLR,,0.00,WeatherDisplay:10.37,2013-04-11 19:11:00,
2013-04-12 05:31:00,60.6,54.8,30.10,WSW,253,0.0,0.0,81,0.00,CLR,,0.00,WeatherDisplay:10.37,2013-04-11 19:31:00,
2013-04-12 05:41:00,61.0,55.1,30.11,WSW,246,0.0,0.0,81,0.00,CLR,,0.00,WeatherDisplay:10.37,2013-04-11 19:41:00,
2013-04-12 05:46:00,61.0,55.1,30.11,SW,228,0.0,0.0,81,0.00,CLR,,0.00,WeatherDisplay:10.37,2013-04-11 19:46:00,
2013-04-12 05:56:00,61.0,55.1,30.11,SSW,211,0.0,0.0,81,0.00,CLR,,0.00,WeatherDisplay:10.37,2013-04-11 19:56:00,
2013-04-12 06:01:00,61.2,55.3,30.11,SSW,208,0.0,0.0,81,0.00,CLR,,0.00,WeatherDisplay:10.37,2013-04-11 20:01:00,
2013-04-12 06:06:00,61.2,55.3,30.11,SSW,192,0.0,0.0,81,0.00,CLR,,0.00,WeatherDisplay:10.37,2013-04-11 20:06:00,
2013-04-12 06:16:00,61.3,55.8,30.11,SSW,206,0.0,0.0,82,0.00,CLR,,0.00,WeatherDisplay:10.37,2013-04-11 20:16:00,
2013-04-12 06:21:00,61.3,55.8,30.12,SSW,192,0.0,0.0,82,0.00,CLR,,0.00,WeatherDisplay:10.37,2013-04-11 20:21:00,
2013-04-12 06:31:00,61.4,55.9,30.12,South,188,0.0,0.0,82,0.00,CLR,,0.00,WeatherDisplay:10.37,2013-04-11 20:31:00,
2013-04-12 06:41:00,61.5,56.0,30.12,SSW,198,0.0,0.0,82,0.00,CLR,,0.00,WeatherDisplay:10.37,2013-04-11 20:41:00,
2013-04-12 06:46:00,61.5,56.0,30.13,South,185,0.0,0.0,82,0.00,CLR,,0.00,WeatherDisplay:10.37,2013-04-11 20:46:00,
2013-04-12 06:51:00,61.7,56.1,30.13,South,182,0.0,0.0,82,0.00,CLR,,0.00,WeatherDisplay:10.37,2013-04-11 20:51:00,
2013-04-12 06:56:00,61.9,56.7,30.13,South,185,0.0,0.0,83,0.00,CLR,,0.00,WeatherDisplay:10.37,2013-04-11 20:56:00,
2013-04-12 07:01:00,62.0,56.7,30.13,South,186,0.0,0.0,83,0.00,CLR,,0.00,WeatherDisplay:10.37,2013-04-11 21:01:00,
2013-04-12 07:11:00,62.2,57.0,30.13,ESE,113,0.0,0.0,83,0.00,CLR,,0.00,WeatherDisplay:10.37,2013-04-11 21:11:00,
2013-04-12 07:16:00,62.4,57.2,30.13,East,97,0.0,0.0,83,0.00,CLR,,0.00,WeatherDisplay:10.37,2013-04-11 21:16:00,
2013-04-12 07:21:00,62.6,57.3,30.14,NNE,13,0.0,0.0,83,0.00,CLR,,0.00,WeatherDisplay:10.37,2013-04-11 21:21:00,
2013-04-12 07:26:00,62.8,57.5,30.14,NNW,333,0.0,0.0,83,0.00,CLR,,0.00,WeatherDisplay:10.37,2013-04-11 21:26:00,
2013-04-12 07:31:00,63.0,57.7,30.14,NNW,348,0.0,0.0,83,0.00,CLR,,0.00,WeatherDisplay:10.37,2013-04-11 21:31:00,
2013-04-12 07:36:00,63.1,57.9,30.14,NNE,25,0.0,0.0,83,0.00,CLR,,0.00,WeatherDisplay:10.37,2013-04-11 21:36:00,
2013-04-12 07:41:00,63.4,58.2,30.15,NNE,15,0.0,0.0,83,0.00,CLR,,0.00,WeatherDisplay:10.37,2013-04-11 21:41:00,
2013-04-12 07:46:00,63.7,58.4,30.15,NNW,327,0.0,0.0,83,0.00,CLR,,0.00,WeatherDisplay:10.37,2013-04-11 21:46:00,
2013-04-12 07:56:00,64.6,59.3,30.15,NE,40,0.0,0.0,83,0.00,CLR,,0.00,WeatherDisplay:10.37,2013-04-11 21:56:00,
2013-04-12 08:01:00,65.2,59.9,30.15,NE,40,0.0,0.0,83,0.00,CLR,,0.00,WeatherDisplay:10.37,2013-04-11 22:01:00,
2013-04-12 08:06:00,65.7,60.4,30.15,NE,34,0.0,0.0,83,0.00,CLR,,0.00,WeatherDisplay:10.37,2013-04-11 22:06:00,
2013-04-12 08:16:00,66.8,61.1,30.15,NE,45,0.0,1.0,82,0.00,CLR,,0.00,WeatherDisplay:10.37,2013-04-11 22:16:00,
2013-04-12 08:21:00,67.3,61.6,30.16,NNE,25,0.0,0.0,82,0.00,CLR,,0.00,WeatherDisplay:10.37,2013-04-11 22:21:00,
2013-04-12 08:31:00,68.7,62.7,30.16,NNE,17,0.0,2.0,81,0.00,CLR,,0.00,WeatherDisplay:10.37,2013-04-11 22:31:00,
2013-04-12 08:36:00,69.3,62.9,30.16,North,10,0.0,1.0,80,0.00,CLR,,0.00,WeatherDisplay:10.37,2013-04-11 22:36:00,
2013-04-12 08:41:00,69.9,63.1,30.15,North,1,0.0,0.0,79,0.00,CLR,,0.00,WeatherDisplay:10.37,2013-04-11 22:41:00,
2013-04-12 08:51:00,71.0,63.0,30.15,NNW,337,0.0,2.0,76,0.00,CLR,,0.00,WeatherDisplay:10.37,2013-04-11 22:51:00,
2013-04-12 08:56:00,71.6,63.2,30.15,WNW,293,0.0,2.0,75,0.00,CLR,,0.00,WeatherDisplay:10.37,2013-04-11 22:56:00,
2013-04-12 09:01:00,72.3,63.6,30.15,WSW,243,0.0,2.0,74,0.00,CLR,,0.00,WeatherDisplay:10.37,2013-04-11 23:01:00,
2013-04-12 09:06:00,72.9,63.7,30.15,West,261,0.0,2.0,73,0.00,CLR,,0.00,WeatherDisplay:10.37,2013-04-11 23:06:00,
2013-04-12 09:16:00,73.6,63.6,30.14,WNW,284,0.0,0.0,71,0.00,CLR,,0.00,WeatherDisplay:10.37,2013-04-11 23:16:00,
2013-04-12 09:21:00,74.1,64.1,30.14,WNW,287,0.0,0.0,71,0.00,CLR,,0.00,WeatherDisplay:10.37,2013-04-11 23:21:00,
2013-04-12 09:26:00,74.5,64.1,30.14,NW,323,0.0,2.0,70,0.00,CLR,,0.00,WeatherDisplay:10.37,2013-04-11 23:26:00,
2013-04-12 09:31:00,74.9,64.0,30.15,NNW,331,0.0,0.0,69,0.00,CLR,,0.00,WeatherDisplay:10.37,2013-04-11 23:31:00,
2013-04-12 09:36:00,75.4,64.5,30.14,NW,321,0.0,1.0,69,0.00,CLR,,0.00,WeatherDisplay:10.37,2013-04-11 23:36:00,
2013-04-12 09:41:00,75.7,64.4,30.14,WNW,284,0.0,2.0,68,0.00,CLR,,0.00,WeatherDisplay:10.37,2013-04-11 23:41:00,
2013-04-12 09:46:00,76.1,64.7,30.14,SW,233,0.0,3.0,68,0.00,CLR,,0.00,WeatherDisplay:10.37,2013-04-11 23:46:00,
2013-04-12 09:51:00,76.3,64.5,30.14,NW,322,1.0,4.0,67,0.00,CLR,,0.00,WeatherDisplay:10.37,2013-04-11 23:51:00,
2013-04-12 09:56:00,76.6,64.9,30.14,North,350,3.0,6.0,67,0.00,CLR,,0.00,WeatherDisplay:10.37,2013-04-11 23:56:00,
2013-04-12 10:01:00,76.8,64.6,30.14,NNE,33,0.0,5.0,66,0.00,CLR,,0.00,WeatherDisplay:10.37,2013-04-12 00:01:00,
2013-04-12 10:06:00,76.8,64.6,30.14,North,9,1.0,5.0,66,0.00,CLR,,0.00,WeatherDisplay:10.37,2013-04-12 00:06:00,
2013-04-12 10:11:00,77.5,64.8,30.14,NE,34,1.0,4.0,65,0.00,CLR,,0.00,WeatherDisplay:10.37,2013-04-12 00:11:00,
2013-04-12 10:16:00,77.7,64.6,30.13,NE,38,1.0,7.0,64,0.00,CLR,,0.00,WeatherDisplay:10.37,2013-04-12 00:16:00,
2013-04-12 10:26:00,77.6,64.0,30.14,NNE,18,2.0,7.0,63,0.00,CLR,,0.00,WeatherDisplay:10.37,2013-04-12 00:26:00,
2013-04-12 10:31:00,77.4,63.4,30.14,North,9,1.0,4.0,62,0.00,CLR,,0.00,WeatherDisplay:10.37,2013-04-12 00:31:00,
2013-04-12 10:36:00,77.2,63.2,30.14,NE,55,0.0,6.0,62,0.00,CLR,,0.00,WeatherDisplay:10.37,2013-04-12 00:36:00,
2013-04-12 10:41:00,76.8,62.8,30.14,NE,55,2.0,5.0,62,0.00,CLR,,0.00,WeatherDisplay:10.37,2013-04-12 00:41:00,
2013-04-12 10:46:00,76.8,62.8,30.13,NE,45,1.0,5.0,62,0.00,CLR,,0.00,WeatherDisplay:10.37,2013-04-12 00:46:00,
2013-04-12 10:56:00,76.6,63.1,30.13,NNE,18,0.0,2.0,63,0.00,CLR,,0.00,WeatherDisplay:10.37,2013-04-12 00:56:00,
2013-04-12 11:01:00,76.8,62.8,30.12,NE,40,2.0,7.0,62,0.00,CLR,,0.00,WeatherDisplay:10.37,2013-04-12 01:01:00,
2013-04-12 11:06:00,77.2,62.7,30.12,NE,35,2.0,8.0,61,0.00,CLR,,0.00,WeatherDisplay:10.37,2013-04-12 01:06:00,
2013-04-12 11:11:00,77.8,63.3,30.11,NNE,30,1.0,5.0,61,0.00,CLR,,0.00,WeatherDisplay:10.37,2013-04-12 01:11:00,
2013-04-12 11:16:00,78.4,63.4,30.11,NNE,27,1.0,7.0,60,0.00,CLR,,0.00,WeatherDisplay:10.37,2013-04-12 01:16:00,
2013-04-12 11:21:00,78.9,63.4,30.11,NE,39,0.0,6.0,59,0.00,CLR,,0.00,WeatherDisplay:10.37,2013-04-12 01:21:00,
2013-04-12 11:26:00,79.3,63.8,30.11,NE,42,2.0,6.0,59,0.00,CLR,,0.00,WeatherDisplay:10.37,2013-04-12 01:26:00,
2013-04-12 11:36:00,80.0,63.4,30.11,NNE,33,1.0,4.0,57,0.00,CLR,,0.00,WeatherDisplay:10.37,2013-04-12 01:36:00,
2013-04-12 11:41:00,80.4,63.3,30.11,NNE,18,5.0,8.0,56,0.00,CLR,,0.00,WeatherDisplay:10.37,2013-04-12 01:41:00,
2013-04-12 11:46:00,80.2,62.6,30.10,North,6,1.0,8.0,55,0.00,CLR,,0.00,WeatherDisplay:10.37,2013-04-12 01:46:00,
2013-04-12 11:51:00,79.7,62.1,30.10,North,1,0.0,4.0,55,0.00,CLR,,0.00,WeatherDisplay:10.37,2013-04-12 01:51:00,
2013-04-12 11:56:00,79.5,61.9,30.10,NNW,337,0.0,0.0,55,0.00,CLR,,0.00,WeatherDisplay:10.37,2013-04-12 01:56:00,
2013-04-12 12:01:00,79.3,62.3,30.10,North,349,2.0,6.0,56,0.00,CLR,,0.00,WeatherDisplay:10.37,2013-04-12 02:01:00,
2013-04-12 12:11:00,78.6,61.6,30.10,NNW,348,0.0,3.0,56,0.00,CLR,,0.00,WeatherDisplay:10.37,2013-04-12 02:11:00,
2013-04-12 12:16:00,78.3,61.8,30.09,NW,326,1.0,2.0,57,0.00,CLR,,0.00,WeatherDisplay:10.37,2013-04-12 02:16:00,
2013-04-12 12:21:00,78.1,61.6,30.09,NW,319,0.0,0.0,57,0.00,CLR,,0.00,WeatherDisplay:10.37,2013-04-12 02:21:00,
2013-04-12 12:26:00,78.0,62.0,30.09,NNW,331,1.0,7.0,58,0.00,CLR,,0.00,WeatherDisplay:10.37,2013-04-12 02:26:00,
2013-04-12 12:36:00,78.5,62.5,30.09,NNW,337,1.0,5.0,58,0.00,CLR,,0.00,WeatherDisplay:10.37,2013-04-12 02:36:00,
2013-04-12 12:41:00,78.6,62.6,30.09,NNW,336,1.0,5.0,58,0.00,CLR,,0.00,WeatherDisplay:10.37,2013-04-12 02:41:00,
2013-04-12 12:46:00,79.0,62.4,30.08,NNW,341,0.0,4.0,57,0.00,CLR,,0.00,WeatherDisplay:10.37,2013-04-12 02:46:00,
2013-04-12 12:51:00,78.7,62.7,30.08,NNW,347,0.0,4.0,58,0.00,CLR,,0.00,WeatherDisplay:10.37,2013-04-12 02:51:00,
2013-04-12 12:56:00,79.0,62.9,30.08,NNW,333,0.0,3.0,58,0.00,CLR,,0.00,WeatherDisplay:10.37,2013-04-12 02:56:00,
2013-04-12 13:01:00,79.0,62.9,30.07,NW,312,2.0,4.0,58,0.00,CLR,,0.00,WeatherDisplay:10.37,2013-04-12 03:01:00,
2013-04-12 13:06:00,79.0,62.9,30.07,North,352,2.0,7.0,58,0.00,CLR,,0.00,WeatherDisplay:10.37,2013-04-12 03:06:00,
2013-04-12 13:11:00,79.1,63.0,30.07,NNE,33,1.0,7.0,58,0.00,CLR,,0.00,WeatherDisplay:10.37,2013-04-12 03:11:00,
2013-04-12 13:21:00,79.5,63.4,30.06,NNW,341,0.0,3.0,58,0.00,CLR,,0.00,WeatherDisplay:10.37,2013-04-12 03:21:00,
2013-04-12 13:26:00,79.9,63.3,30.06,NNW,329,0.0,2.0,57,0.00,CLR,,0.00,WeatherDisplay:10.37,2013-04-12 03:26:00,
2013-04-12 13:31:00,79.9,63.3,30.06,NNW,328,0.0,8.0,57,0.00,CLR,,0.00,WeatherDisplay:10.37,2013-04-12 03:31:00,
2013-04-12 13:36:00,79.9,63.3,30.06,NNW,335,0.0,6.0,57,0.00,CLR,,0.00,WeatherDisplay:10.37,2013-04-12 03:36:00,
2013-04-12 13:41:00,80.2,63.6,30.06,NNW,337,1.0,5.0,57,0.00,CLR,,0.00,WeatherDisplay:10.37,2013-04-12 03:41:00,
2013-04-12 13:46:00,80.2,63.6,30.06,NNW,345,1.0,2.0,57,0.00,CLR,,0.00,WeatherDisplay:10.37,2013-04-12 03:46:00,
2013-04-12 13:51:00,80.1,63.0,30.06,NW,321,1.0,4.0,56,0.00,CLR,,0.00,WeatherDisplay:10.37,2013-04-12 03:51:00,
2013-04-12 13:56:00,80.2,63.1,30.05,NW,307,1.0,4.0,56,0.00,CLR,,0.00,WeatherDisplay:10.37,2013-04-12 03:56:00,
2013-04-12 14:01:00,80.2,63.1,30.05,NNW,340,0.0,8.0,56,0.00,CLR,,0.00,WeatherDisplay:10.37,2013-04-12 04:01:00,
2013-04-12 14:06:00,80.2,63.1,30.05,NNW,343,1.0,6.0,56,0.00,CLR,,0.00,WeatherDisplay:10.37,2013-04-12 04:06:00,
2013-04-12 14:11:00,79.9,62.8,30.05,North,2,2.0,6.0,56,0.00,CLR,,0.00,WeatherDisplay:10.37,2013-04-12 04:11:00,
2013-04-12 14:16:00,79.8,62.2,30.06,North,10,0.0,4.0,55,0.00,CLR,,0.00,WeatherDisplay:10.37,2013-04-12 04:16:00,
2013-04-12 14:21:00,79.9,62.8,30.05,NNW,332,2.0,5.0,56,0.00,CLR,,0.00,WeatherDisplay:10.37,2013-04-12 04:21:00,
2013-04-12 14:26:00,79.9,62.3,30.05,NNW,332,2.0,3.0,55,0.00,CLR,,0.00,WeatherDisplay:10.37,2013-04-12 04:26:00,
2013-04-12 14:31:00,79.9,62.3,30.05,NW,321,0.0,2.0,55,0.00,CLR,,0.00,WeatherDisplay:10.37,2013-04-12 04:31:00,
2013-04-12 14:36:00,79.8,61.7,30.05,NW,320,0.0,2.0,54,0.00,CLR,,0.00,WeatherDisplay:10.37,2013-04-12 04:36:00,
2013-04-12 14:41:00,79.5,61.4,30.05,NW,317,0.0,0.0,54,0.00,CLR,,0.00,WeatherDisplay:10.37,2013-04-12 04:41:00,
2013-04-12 14:46:00,79.4,60.8,30.05,NW,316,0.0,0.0,53,0.00,CLR,,0.00,WeatherDisplay:10.37,2013-04-12 04:46:00,
2013-04-12 14:51:00,79.3,61.2,30.05,NW,316,0.0,2.0,54,0.00,CLR,,0.00,WeatherDisplay:10.37,2013-04-12 04:51:00,
2013-04-12 14:56:00,79.3,61.2,30.04,NW,317,0.0,2.0,54,0.00,CLR,,0.00,WeatherDisplay:10.37,2013-04-12 04:56:00,
2013-04-12 15:06:00,79.0,60.9,30.05,NW,319,0.0,0.0,54,0.00,CLR,,0.00,WeatherDisplay:10.37,2013-04-12 05:06:00,
2013-04-12 15:11:00,78.9,60.8,30.05,NNW,328,0.0,2.0,54,0.00,CLR,,0.00,WeatherDisplay:10.37,2013-04-12 05:11:00,
2013-04-12 15:16:00,78.6,61.1,30.04,NW,325,1.0,2.0,55,0.00,CLR,,0.00,WeatherDisplay:10.37,2013-04-12 05:16:00,
2013-04-12 15:26:00,78.3,60.8,30.04,NW,317,2.0,2.0,55,0.00,CLR,,0.00,WeatherDisplay:10.37,2013-04-12 05:26:00,
2013-04-12 15:31:00,78.1,60.6,30.04,NW,316,0.0,2.0,55,0.00,CLR,,0.00,WeatherDisplay:10.37,2013-04-12 05:31:00,
2013-04-12 15:36:00,78.0,61.0,30.04,NW,316,0.0,0.0,56,0.00,CLR,,0.00,WeatherDisplay:10.37,2013-04-12 05:36:00,
2013-04-12 15:41:00,77.9,61.4,30.04,NW,317,1.0,2.0,57,0.00,CLR,,0.00,WeatherDisplay:10.37,2013-04-12 05:41:00,
2013-04-12 15:46:00,77.7,61.3,30.04,NW,315,0.0,2.0,57,0.00,CLR,,0.00,WeatherDisplay:10.37,2013-04-12 05:46:00,
2013-04-12 15:51:00,77.5,61.6,30.04,NW,315,1.0,1.0,58,0.00,CLR,,0.00,WeatherDisplay:10.37,2013-04-12 05:51:00,
2013-04-12 15:56:00,77.5,61.5,30.04,NW,316,0.0,1.0,58,0.00,CLR,,0.00,WeatherDisplay:10.37,2013-04-12 05:56:00,
2013-04-12 16:01:00,77.4,61.4,30.04,NW,317,1.0,2.0,58,0.00,CLR,,0.00,WeatherDisplay:10.37,2013-04-12 06:01:00,
2013-04-12 16:06:00,77.2,61.3,30.04,NW,315,1.0,2.0,58,0.00,CLR,,0.00,WeatherDisplay:10.37,2013-04-12 06:06:00,
2013-04-12 16:16:00,76.8,61.4,30.04,NW,317,5.0,5.0,59,0.00,CLR,,0.00,WeatherDisplay:10.37,2013-04-12 06:16:00,
2013-04-12 16:21:00,76.5,60.7,30.04,NW,316,0.0,1.0,58,0.00,CLR,,0.00,WeatherDisplay:10.37,2013-04-12 06:21:00,
2013-04-12 16:26:00,76.3,60.9,30.04,NW,317,2.0,2.0,59,0.00,CLR,,0.00,WeatherDisplay:10.37,2013-04-12 06:26:00,
2013-04-12 16:31:00,75.9,60.1,30.04,NW,315,0.0,2.0,58,0.00,CLR,,0.00,WeatherDisplay:10.37,2013-04-12 06:31:00,
2013-04-12 16:36:00,75.7,59.9,30.04,NW,314,0.0,0.0,58,0.00,CLR,,0.00,WeatherDisplay:10.37,2013-04-12 06:36:00,
2013-04-12 16:41:00,75.4,60.1,30.04,NW,318,0.0,0.0,59,0.00,CLR,,0.00,WeatherDisplay:10.37,2013-04-12 06:41:00,
2013-04-12 16:46:00,75.2,59.9,30.04,NW,317,0.0,0.0,59,0.00,CLR,,0.00,WeatherDisplay:10.37,2013-04-12 06:46:00,
2013-04-12 16:51:00,75.0,59.7,30.04,NW,315,0.0,0.0,59,0.00,CLR,,0.00,WeatherDisplay:10.37,2013-04-12 06:51:00,
2013-04-12 16:56:00,75.0,59.7,30.04,NW,317,0.0,0.0,59,0.00,CLR,,0.00,WeatherDisplay:10.37,2013-04-12 06:56:00,
2013-04-12 17:01:00,74.8,60.0,30.04,NW,316,0.0,0.0,60,0.00,CLR,,0.00,WeatherDisplay:10.37,2013-04-12 07:01:00,
2013-04-12 17:11:00,74.5,60.1,30.04,NW,318,0.0,0.0,61,0.00,CLR,,0.00,WeatherDisplay:10.37,2013-04-12 07:11:00,
2013-04-12 17:16:00,74.3,60.4,30.04,NW,318,2.0,3.0,62,0.00,CLR,,0.00,WeatherDisplay:10.37,2013-04-12 07:16:00,
2013-04-12 17:21:00,74.1,60.3,30.05,NW,315,1.0,3.0,62,0.00,CLR,,0.00,WeatherDisplay:10.37,2013-04-12 07:21:00,
2013-04-12 17:26:00,73.9,60.1,30.05,NW,315,1.0,2.0,62,0.00,CLR,,0.00,WeatherDisplay:10.37,2013-04-12 07:26:00,
2013-04-12 17:31:00,73.8,59.9,30.04,NW,322,0.0,3.0,62,0.00,CLR,,0.00,WeatherDisplay:10.37,2013-04-12 07:31:00,
2013-04-12 17:41:00,73.4,60.0,30.05,NNW,336,0.0,4.0,63,0.00,CLR,,0.00,WeatherDisplay:10.37,2013-04-12 07:41:00,
2013-04-12 17:46:00,73.2,59.9,30.05,NNW,339,0.0,3.0,63,0.00,CLR,,0.00,WeatherDisplay:10.37,2013-04-12 07:46:00,
2013-04-12 17:51:00,73.2,59.9,30.05,North,5,0.0,5.0,63,0.00,CLR,,0.00,WeatherDisplay:10.37,2013-04-12 07:51:00,
2013-04-12 17:56:00,73.0,60.1,30.05,NE,35,0.0,2.0,64,0.00,CLR,,0.00,WeatherDisplay:10.37,2013-04-12 07:56:00,
2013-04-12 18:01:00,73.0,59.7,30.05,NNE,16,0.0,2.0,63,0.00,CLR,,0.00,WeatherDisplay:10.37,2013-04-12 08:01:00,
2013-04-12 18:11:00,72.7,59.4,30.06,NE,37,0.0,2.0,63,0.00,CLR,,0.00,WeatherDisplay:10.37,2013-04-12 08:11:00,
2013-04-12 18:16:00,72.5,59.2,30.06,NE,46,0.0,0.0,63,0.00,CLR,,0.00,WeatherDisplay:10.37,2013-04-12 08:16:00,
2013-04-12 18:26:00,72.3,59.0,30.06,NE,39,0.0,3.0,63,0.00,CLR,,0.00,WeatherDisplay:10.37,2013-04-12 08:26:00,
2013-04-12 18:31:00,72.1,58.8,30.06,NE,43,0.0,5.0,63,0.00,CLR,,0.00,WeatherDisplay:10.37,2013-04-12 08:31:00,
2013-04-12 18:36:00,72.1,59.3,30.06,NE,52,0.0,4.0,64,0.00,CLR,,0.00,WeatherDisplay:10.37,2013-04-12 08:36:00,
2013-04-12 18:41:00,72.0,59.1,30.06,ENE,75,0.0,3.0,64,0.00,CLR,,0.00,WeatherDisplay:10.37,2013-04-12 08:41:00,
2013-04-12 18:51:00,71.8,58.9,30.06,NE,45,0.0,2.0,64,0.00,CLR,,0.00,WeatherDisplay:10.37,2013-04-12 08:51:00,
2013-04-12 18:56:00,71.8,58.9,30.06,NE,53,1.0,2.0,64,0.00,CLR,,0.00,WeatherDisplay:10.37,2013-04-12 08:56:00,
2013-04-12 19:01:00,71.4,58.6,30.06,NE,46,0.0,2.0,64,0.00,CLR,,0.00,WeatherDisplay:10.37,2013-04-12 09:01:00,
2013-04-12 19:11:00,71.3,59.0,30.06,NE,39,0.0,0.0,65,0.00,CLR,,0.00,WeatherDisplay:10.37,2013-04-12 09:11:00,
2013-04-12 19:16:00,71.2,58.9,30.06,NE,47,0.0,2.0,65,0.00,CLR,,0.00,WeatherDisplay:10.37,2013-04-12 09:16:00,
2013-04-12 19:21:00,71.1,58.7,30.06,NNE,32,0.0,2.0,65,0.00,CLR,,0.00,WeatherDisplay:10.37,2013-04-12 09:21:00,
2013-04-12 19:26:00,70.9,58.5,30.06,NE,54,0.0,2.0,65,0.00,CLR,,0.00,WeatherDisplay:10.37,2013-04-12 09:26:00,
2013-04-12 19:31:00,70.9,58.5,30.07,NE,44,1.0,2.0,65,0.00,CLR,,0.00,WeatherDisplay:10.37,2013-04-12 09:31:00,
2013-04-12 19:36:00,70.9,58.5,30.06,NNE,13,0.0,0.0,65,0.00,CLR,,0.00,WeatherDisplay:10.37,2013-04-12 09:36:00,
2013-04-12 19:41:00,70.7,58.4,30.07,North,6,0.0,0.0,65,0.00,CLR,,0.00,WeatherDisplay:10.37,2013-04-12 09:41:00,
2013-04-12 19:46:00,70.5,58.2,30.07,NE,42,0.0,0.0,65,0.00,CLR,,0.00,WeatherDisplay:10.37,2013-04-12 09:46:00,
2013-04-12 19:51:00,70.5,58.2,30.07,East,89,0.0,2.0,65,0.00,CLR,,0.00,WeatherDisplay:10.37,2013-04-12 09:51:00,
2013-04-12 19:56:00,70.4,58.1,30.07,East,85,0.0,0.0,65,0.00,CLR,,0.00,WeatherDisplay:10.37,2013-04-12 09:56:00,
2013-04-12 20:06:00,70.3,58.0,30.07,NE,45,0.0,0.0,65,0.00,CLR,,0.00,WeatherDisplay:10.37,2013-04-12 10:06:00,
2013-04-12 20:16:00,70.0,58.1,30.08,East,83,0.0,0.0,66,0.00,CLR,,0.00,WeatherDisplay:10.37,2013-04-12 10:16:00,
2013-04-12 20:21:00,70.0,58.1,30.08,East,89,0.0,0.0,66,0.00,CLR,,0.00,WeatherDisplay:10.37,2013-04-12 10:21:00,
2013-04-12 20:26:00,69.7,57.8,30.08,East,96,0.0,0.0,66,0.00,CLR,,0.00,WeatherDisplay:10.37,2013-04-12 10:26:00,
2013-04-12 20:31:00,69.6,57.8,30.08,SSE,159,0.0,0.0,66,0.00,CLR,,0.00,WeatherDisplay:10.37,2013-04-12 10:31:00,
2013-04-12 20:41:00,69.1,57.2,30.08,SSW,206,0.0,0.0,66,0.00,CLR,,0.00,WeatherDisplay:10.37,2013-04-12 10:41:00,
2013-04-12 20:46:00,68.9,57.5,30.08,SW,217,0.0,0.0,67,0.00,CLR,,0.00,WeatherDisplay:10.37,2013-04-12 10:46:00,
2013-04-12 20:51:00,68.7,57.3,30.08,SW,226,0.0,0.0,67,0.00,CLR,,0.00,WeatherDisplay:10.37,2013-04-12 10:51:00,
2013-04-12 20:56:00,68.5,57.1,30.08,SW,218,0.0,0.0,67,0.00,CLR,,0.00,WeatherDisplay:10.37,2013-04-12 10:56:00,
2013-04-12 21:01:00,68.4,57.5,30.07,SW,217,0.0,0.0,68,0.00,CLR,,0.00,WeatherDisplay:10.37,2013-04-12 11:01:00,
2013-04-12 21:06:00,68.2,57.2,30.08,SW,223,0.0,0.0,68,0.00,CLR,,0.00,WeatherDisplay:10.37,2013-04-12 11:06:00,
2013-04-12 21:11:00,68.2,57.2,30.07,SW,221,0.0,0.0,68,0.00,CLR,,0.00,WeatherDisplay:10.37,2013-04-12 11:11:00,
2013-04-12 21:16:00,67.8,56.9,30.08,SW,215,0.0,0.0,68,0.00,CLR,,0.00,WeatherDisplay:10.37,2013-04-12 11:16:00,
2013-04-12 21:21:00,67.8,57.3,30.07,SSW,212,0.0,0.0,69,0.00,CLR,,0.00,WeatherDisplay:10.37,2013-04-12 11:21:00,
2013-04-12 21:26:00,67.6,57.1,30.07,SW,214,0.0,0.0,69,0.00,CLR,,0.00,WeatherDisplay:10.37,2013-04-12 11:26:00,
2013-04-12 21:36:00,67.6,57.1,30.07,SSW,206,0.0,0.0,69,0.00,CLR,,0.00,WeatherDisplay:10.37,2013-04-12 11:36:00,
2013-04-12 21:46:00,67.4,57.2,30.07,SSW,202,0.0,0.0,70,0.00,CLR,,0.00,WeatherDisplay:10.37,2013-04-12 11:46:00,
2013-04-12 21:51:00,67.3,57.2,30.07,SSW,201,0.0,0.0,70,0.00,CLR,,0.00,WeatherDisplay:10.37,2013-04-12 11:51:00,
2013-04-12 21:56:00,67.3,57.2,30.07,SSW,199,0.0,0.0,70,0.00,CLR,,0.00,WeatherDisplay:10.37,2013-04-12 11:56:00,
2013-04-12 22:06:00,66.9,57.2,30.07,SW,214,0.0,0.0,71,0.00,CLR,,0.00,WeatherDisplay:10.37,2013-04-12 12:06:00,
2013-04-12 22:11:00,66.9,57.2,30.06,SSW,211,0.0,0.0,71,0.00,CLR,,0.00,WeatherDisplay:10.37,2013-04-12 12:11:00,
2013-04-12 22:16:00,66.7,57.0,30.07,SSW,208,0.0,0.0,71,0.00,CLR,,0.00,WeatherDisplay:10.37,2013-04-12 12:16:00,
2013-04-12 22:21:00,66.7,57.0,30.06,SSW,204,0.0,0.0,71,0.00,CLR,,0.00,WeatherDisplay:10.37,2013-04-12 12:21:00,
2013-04-12 22:31:00,66.6,57.3,30.06,SSW,208,0.0,0.0,72,0.00,CLR,,0.00,WeatherDisplay:10.37,2013-04-12 12:31:00,
2013-04-12 22:36:00,66.6,57.3,30.06,SSW,209,0.0,0.0,72,0.00,CLR,,0.00,WeatherDisplay:10.37,2013-04-12 12:36:00,
2013-04-12 22:41:00,66.4,57.1,30.06,SSW,212,0.0,0.0,72,0.00,CLR,,0.00,WeatherDisplay:10.37,2013-04-12 12:41:00,
2013-04-12 22:46:00,66.4,57.1,30.06,SSW,208,0.0,0.0,72,0.00,CLR,,0.00,WeatherDisplay:10.37,2013-04-12 12:46:00,
2013-04-12 22:56:00,66.0,56.7,30.06,SSW,198,0.0,0.0,72,0.00,CLR,,0.00,WeatherDisplay:10.37,2013-04-12 12:56:00,
2013-04-12 23:01:00,66.0,56.7,30.05,SSW,195,0.0,0.0,72,0.00,CLR,,0.00,WeatherDisplay:10.37,2013-04-12 13:01:00,
2013-04-12 23:06:00,66.0,56.7,30.05,SSW,194,0.0,0.0,72,0.00,CLR,,0.00,WeatherDisplay:10.37,2013-04-12 13:06:00,
2013-04-12 23:16:00,65.8,56.9,30.04,SSW,207,0.0,0.0,73,0.00,CLR,,0.00,WeatherDisplay:10.37,2013-04-12 13:16:00,
2013-04-12 23:21:00,65.7,56.8,30.04,SSW,205,0.0,0.0,73,0.00,CLR,,0.00,WeatherDisplay:10.37,2013-04-12 13:21:00,
2013-04-12 23:31:00,65.5,57.0,30.04,SSW,193,0.0,0.0,74,0.00,CLR,,0.00,WeatherDisplay:10.37,2013-04-12 13:31:00,
2013-04-12 23:51:00,65.5,57.0,30.03,SSW,196,0.0,0.0,74,0.00,CLR,,0.00,WeatherDisplay:10.37,2013-04-12 13:51:00,